Terminal Aerodrome Forecast
Issued by NWS

Home | Current Version | Previous Version | Text Only | Print | Product List | Glossary On
Versions: 1 2 3 4 5 6 7 8 9 10 11 12
000
FTUS45 KRIW 240524
TAFWRL
TAF
KWRL 240524Z 2406/2506 20006KT P6SM SCT100
     FM241000 VRB05KT P6SM SCT050 BKN090
     FM241600 35011KT P6SM -SHRA BKN045
     FM242100 33006KT P6SM BKN070
     FM250100 VRB05KT P6SM SCT080=

USA.gov is the U.S. government's official web portal to all federal, state and local government web resources and services.